Time;durP1;ratioP1;P1;durP2;ratioP2;P2;SDS_P1;SDS_P2;PMS_P1;PMS_P2;Temp;Humidity;BMP_temperature;BMP_pressure;BME280_temperature;BME280_humidity;BME280_pressure;Samples;Min_cycle;Max_cycle;Signal;HPM_P1;HPM_P2
2022/11/17 00:01:19;;;;;;;11.00;8.20;;;;;;;3.08;100.00;94751.75;5110993;28;20040;-76
2022/11/17 00:03:47;;;;;;;14.05;7.65;;;;;;;3.08;100.00;94748.22;5111347;28;20043;-76
2022/11/17 00:06:15;;;;;;;10.15;7.57;;;;;;;3.11;100.00;94744.94;5111254;28;20048;-75
2022/11/17 00:08:42;;;;;;;11.38;8.32;;;;;;;3.11;100.00;94737.66;5111548;28;20402;-76
2022/11/17 00:11:08;;;;;;;11.55;8.43;;;;;;;3.17;100.00;94746.38;5110693;28;20043;-76
2022/11/17 00:16:20;;;;;;;14.00;8.40;;;;;;;3.24;100.00;94741.38;5107287;28;20054;-75
2022/11/17 00:21:33;;;;;;;11.75;8.57;;;;;;;3.28;100.00;94720.78;5090637;28;20185;-75
2022/11/17 00:24:00;;;;;;;13.85;8.88;;;;;;;3.25;100.00;94710.66;5091099;28;20044;-75
2022/11/17 00:26:28;;;;;;;11.02;8.65;;;;;;;3.31;100.00;94709.41;5090652;28;20040;-76
2022/11/17 00:28:57;;;;;;;10.85;8.27;;;;;;;3.35;100.00;94706.91;5090654;28;20086;-75
2022/11/17 00:34:14;;;;;;;11.15;8.27;;;;;;;3.38;100.00;94700.88;5090485;28;20508;-75
2022/11/17 00:36:44;;;;;;;10.95;8.55;;;;;;;3.31;100.00;94714.78;5090847;28;20513;-75
2022/11/17 00:39:12;;;;;;;11.77;8.57;;;;;;;3.34;100.00;94713.38;5090087;28;20060;-75
2022/11/17 00:41:39;;;;;;;10.85;8.18;;;;;;;3.42;100.00;94717.19;5090716;28;20044;-77
2022/11/17 00:44:06;;;;;;;11.82;8.70;;;;;;;3.44;100.00;94712.28;5090250;28;20043;-76
2022/11/17 00:46:33;;;;;;;11.00;8.25;;;;;;;3.43;100.00;94710.72;5090635;28;20044;-75
2022/11/17 00:49:00;;;;;;;12.52;8.32;;;;;;;3.45;100.00;94725.47;5097101;28;20426;-75
2022/11/17 00:51:28;;;;;;;10.52;7.88;;;;;;;3.48;100.00;94724.03;5111029;28;20043;-75
2022/11/17 00:53:55;;;;;;;9.90;7.78;;;;;;;3.53;100.00;94721.19;5111114;28;20567;-75
2022/11/17 00:56:22;;;;;;;10.52;8.00;;;;;;;3.53;100.00;94715.81;5110333;28;20051;-75
2022/11/17 00:58:49;;;;;;;12.25;7.88;;;;;;;3.50;100.00;94724.50;5111035;28;20110;-75
2022/11/17 01:01:15;;;;;;;15.00;7.75;;;;;;;3.50;100.00;94728.00;5109989;28;20618;-74
2022/11/17 01:03:42;;;;;;;9.70;7.65;;;;;;;3.53;100.00;94721.19;5110901;28;20044;-75
2022/11/17 01:06:11;;;;;;;9.48;7.63;;;;;;;3.56;100.00;94721.38;5110187;28;20040;-75
2022/11/17 01:08:39;;;;;;;11.23;8.35;;;;;;;3.62;100.00;94732.78;5110797;28;20043;-76
2022/11/17 01:11:11;;;;;;;12.80;7.95;;;;;;;3.63;100.00;94728.97;5110230;28;20044;-75
2022/11/17 01:13:38;;;;;;;12.38;7.57;;;;;;;3.64;100.00;94727.84;5110370;28;20577;-75
2022/11/17 01:16:07;;;;;;;10.20;7.50;;;;;;;3.68;100.00;94734.22;5089267;28;20040;-76
2022/11/17 01:18:34;;;;;;;9.95;7.25;;;;;;;3.70;100.00;94726.59;5090290;28;20050;-75
2022/11/17 01:21:06;;;;;;;9.80;7.40;;;;;;;3.67;100.00;94725.34;5090335;28;20055;-75
2022/11/17 01:23:32;;;;;;;10.95;7.60;;;;;;;3.69;100.00;94724.22;5090256;28;20047;-76
2022/11/17 01:26:05;;;;;;;10.68;7.35;;;;;;;3.72;100.00;94718.22;5089970;28;20036;-75
2022/11/17 01:28:32;;;;;;;;;;;;;;;3.74;100.00;94708.72;5090548;28;20434;-76
2022/11/17 01:31:00;;;;;;;11.27;7.82;;;;;;;3.73;100.00;94707.13;5090028;28;19920;-75
2022/11/17 01:33:27;;;;;;;9.18;7.22;;;;;;;3.77;100.00;94708.09;5089986;28;20048;-75
2022/11/17 01:35:53;;;;;;;16.45;7.85;;;;;;;3.75;100.00;94701.44;5090101;28;20411;-75
2022/11/17 01:38:20;;;;;;;13.52;7.45;;;;;;;3.79;100.00;94697.00;5089475;28;20449;-76
2022/11/17 01:40:47;;;;;;;9.55;6.85;;;;;;;3.80;100.00;94694.00;5089961;28;20526;-75
2022/11/17 01:43:14;;;;;;;15.95;7.90;;;;;;;3.82;100.00;94697.19;5089575;28;20044;-76
2022/11/17 01:45:41;;;;;;;11.13;8.00;;;;;;;3.85;100.00;94696.53;5089295;28;20048;-77
2022/11/17 01:48:13;;;;;;;18.33;8.82;;;;;;;3.88;100.00;94685.16;5089434;28;20048;-76
2022/11/17 01:50:44;;;;;;;11.90;8.35;;;;;;;3.95;100.00;94695.44;5090082;28;20134;-76
2022/11/17 01:53:14;;;;;;;12.95;8.45;;;;;;;3.91;100.00;94684.53;5089280;28;20495;-76
2022/11/17 01:55:45;;;;;;;11.60;7.95;;;;;;;3.92;100.00;94680.72;5089964;28;20131;-76
2022/11/17 01:58:17;;;;;;;13.85;9.10;;;;;;;3.97;100.00;94687.03;5089147;28;20040;-77
2022/11/17 02:00:44;;;;;;;12.52;9.27;;;;;;;4.03;100.00;94685.78;5089938;28;20050;-76
2022/11/17 02:03:11;;;;;;;14.70;9.30;;;;;;;4.07;100.00;94686.72;5089371;28;20050;-76
2022/11/17 02:05:46;;;;;;;16.50;8.93;;;;;;;4.07;100.00;94675.94;5090029;28;20511;-76
2022/11/17 02:08:14;;;;;;;12.82;9.05;;;;;;;4.07;100.00;94667.88;5089438;28;20052;-75
2022/11/17 02:10:42;;;;;;;12.20;8.68;;;;;;;4.09;100.00;94663.75;5089792;28;20044;-76
2022/11/17 02:13:09;;;;;;;12.35;8.90;;;;;;;4.12;100.00;94667.72;5089718;28;20495;-76
2022/11/17 02:15:37;;;;;;;13.38;9.45;;;;;;;4.16;100.00;94672.16;5093123;28;20047;-76
2022/11/17 02:18:04;;;;;;;13.95;10.15;;;;;;;4.22;100.00;94674.69;5092947;28;20048;-76
2022/11/17 02:20:41;;;;;;;14.23;10.15;;;;;;;4.27;100.00;94669.91;5093185;28;20044;-76
2022/11/17 02:23:57;;;;;;;16.67;10.00;;;;;;;4.31;100.00;94678.94;5092693;28;20052;-76
2022/11/17 02:26:40;;;;;;;18.40;9.73;;;;;;;4.33;100.00;94689.41;5092755;28;20047;-76
2022/11/17 02:29:13;;;;;;;14.38;9.38;;;;;;;4.35;100.00;94687.19;5092502;28;20040;-77
2022/11/17 02:31:49;;;;;;;14.35;10.00;;;;;;;4.37;100.00;94676.88;5092756;28;20521;-76
2022/11/17 02:34:27;;;;;;;18.92;10.93;;;;;;;4.36;100.00;94678.78;5092484;28;20044;-76
2022/11/17 02:36:58;;;;;;;13.85;9.68;;;;;;;4.40;100.00;94679.75;5092892;28;20134;-76
2022/11/17 02:39:31;;;;;;;17.73;11.68;;;;;;;4.45;100.00;94676.88;5092427;28;20040;-76
2022/11/17 02:42:08;;;;;;;21.02;12.07;;;;;;;4.49;100.00;94673.53;5084337;28;20048;-76
2022/11/17 02:44:40;;;;;;;22.08;12.23;;;;;;;4.50;100.00;94667.06;5091942;28;20047;-77
2022/11/17 02:47:12;;;;;;;17.13;10.95;;;;;;;4.53;100.00;94663.69;5092098;28;20540;-76
2022/11/17 02:49:44;;;;;;;16.93;10.47;;;;;;;4.53;100.00;94661.00;5104788;28;20040;-76
2022/11/17 02:52:11;;;;;;;15.48;10.65;;;;;;;4.55;100.00;94656.09;5111985;28;20512;-76
2022/11/17 02:54:37;;;;;;;16.77;11.05;;;;;;;4.59;100.00;94648.94;5113140;28;20062;-76
2022/11/17 02:57:04;;;;;;;16.25;11.15;;;;;;;4.58;100.00;94633.88;5112666;28;20042;-76
2022/11/17 02:59:34;;;;;;;16.67;10.70;;;;;;;4.58;100.00;94636.56;5113146;28;20043;-77
2022/11/17 03:02:27;;;;;;;14.13;9.68;;;;;;;4.56;100.00;94628.03;5112762;28;20036;-76
2022/11/17 03:05:01;;;;;;;;;;;;;;;4.52;100.00;94627.06;5113090;28;20042;-76
2022/11/17 03:07:45;;;;;;;12.52;8.98;;;;;;;4.48;100.00;94623.44;5112755;28;19998;-76
2022/11/17 03:10:13;;;;;;;;;;;;;;;4.49;100.00;94619.63;5112928;28;20417;-77
2022/11/17 03:12:46;;;;;;;13.57;9.18;;;;;;;4.48;100.00;94620.75;5112668;28;19927;-76
2022/11/17 03:15:22;;;;;;;11.63;8.63;;;;;;;4.45;100.00;94612.19;5101863;28;20315;-76
2022/11/17 03:17:58;;;;;;;13.35;9.38;;;;;;;4.50;100.00;94602.34;5092300;28;20046;-76
2022/11/17 03:20:30;;;;;;;11.98;9.13;;;;;;;4.51;100.00;94609.31;5091690;28;20044;-76
2022/11/17 03:23:04;;;;;;;11.60;8.38;;;;;;;4.49;100.00;94589.97;5092032;28;20474;-76
2022/11/17 03:25:32;;;;;;;;;;;;;;;4.47;100.00;94581.44;5092461;28;20411;-76
2022/11/17 03:28:04;;;;;;;11.35;7.72;;;;;;;4.45;100.00;94574.47;5092045;28;19920;-77
2022/11/17 03:30:33;;;;;;;13.68;8.43;;;;;;;4.44;100.00;94564.81;5092132;28;20429;-76
2022/11/17 03:33:08;;;;;;;13.63;8.73;;;;;;;4.45;100.00;94555.59;5092079;28;20046;-76
2022/11/17 03:35:38;;;;;;;12.80;8.93;;;;;;;4.42;100.00;94561.63;5092228;28;20426;-76
2022/11/17 03:38:10;;;;;;;12.98;8.35;;;;;;;4.40;100.00;94555.78;5091559;28;20522;-76
2022/11/17 03:40:40;;;;;;;13.38;8.80;;;;;;;4.39;100.00;94562.28;5092509;28;20048;-76
2022/11/17 03:43:10;;;;;;;13.27;9.52;;;;;;;4.41;100.00;94567.34;5091434;28;20414;-76
2022/11/17 03:45:40;;;;;;;11.77;8.43;;;;;;;4.35;100.00;94542.47;5091471;28;20407;-76
2022/11/17 03:48:16;;;;;;;14.07;9.55;;;;;;;4.42;100.00;94540.06;5111450;28;20378;-76
2022/11/17 03:50:46;;;;;;;14.82;9.15;;;;;;;4.44;100.00;94548.63;5112046;28;20048;-76
2022/11/17 03:53:13;;;;;;;14.02;9.25;;;;;;;4.41;100.00;94546.56;5111422;28;20135;-76
2022/11/17 03:55:47;;;;;;;12.52;8.65;;;;;;;4.41;100.00;94535.00;5112023;28;20047;-76
2022/11/17 03:58:17;;;;;;;12.20;9.00;;;;;;;4.39;100.00;94538.03;5111318;28;20054;-76
2022/11/17 04:00:46;;;;;;;13.45;9.80;;;;;;;4.38;100.00;94536.41;5112115;28;20048;-76
2022/11/17 04:03:14;;;;;;;12.02;9.00;;;;;;;4.37;100.00;94534.84;5111355;28;20052;-76
2022/11/17 04:05:41;;;;;;;13.45;9.50;;;;;;;4.38;100.00;94539.13;5111964;28;20039;-76
2022/11/17 04:08:08;;;;;;;11.68;8.50;;;;;;;4.35;100.00;94547.88;5113457;28;20459;-77
2022/11/17 04:15:55;;;;;;;13.40;9.25;;;;;;;4.35;100.00;94547.06;5113661;28;20043;-76
2022/11/17 04:16:11;;;;;;;13.25;9.10;;;;;;;4.41;100.00;94549.25;5016684;28;20460;-76
2022/11/17 04:18:39;;;;;;;12.32;8.10;;;;;;;4.43;100.00;94540.84;5093078;28;20063;-76
2022/11/17 04:21:05;;;;;;;12.77;9.07;;;;;;;4.42;100.00;94540.06;5091884;28;20044;-76
2022/11/17 04:23:32;;;;;;;14.77;9.75;;;;;;;4.40;100.00;94530.72;5092041;28;20051;-76
2022/11/17 04:28:45;;;;;;;14.68;9.13;;;;;;;4.45;100.00;94522.47;5092209;28;20051;-76
2022/11/17 04:31:14;;;;;;;13.68;9.20;;;;;;;4.47;100.00;94512.13;5092122;28;20060;-77
2022/11/17 04:33:44;;;;;;;13.27;9.52;;;;;;;4.44;100.00;94505.50;5092882;28;20046;-76
2022/11/17 04:36:13;;;;;;;13.65;9.82;;;;;;;4.43;100.00;94501.22;5091208;28;20048;-76
2022/11/17 04:38:41;;;;;;;13.70;9.35;;;;;;;4.41;100.00;94499.97;5091160;28;20048;-76
2022/11/17 04:43:54;;;;;;;12.52;9.07;;;;;;;4.39;100.00;94499.50;5090829;28;20047;-76
2022/11/17 04:46:22;;;;;;;12.65;9.25;;;;;;;4.41;100.00;94514.22;5089660;28;20044;-76
2022/11/17 04:48:50;;;;;;;16.00;10.35;;;;;;;4.42;100.00;94504.22;5095270;28;20043;-76
2022/11/17 04:51:16;;;;;;;12.98;9.20;;;;;;;4.47;100.00;94505.97;5110496;28;20054;-76
2022/11/17 04:53:44;;;;;;;12.23;8.70;;;;;;;4.44;100.00;94502.03;5110954;28;20047;-76
2022/11/17 04:56:12;;;;;;;14.43;9.50;;;;;;;4.43;100.00;94501.22;5110230;28;20079;-76
2022/11/17 04:58:38;;;;;;;13.82;9.45;;;;;;;4.45;100.00;94498.22;5111034;28;20044;-76
2022/11/17 05:01:16;;;;;;;13.95;9.80;;;;;;;4.48;100.00;94494.06;5110540;28;20039;-76
2022/11/17 05:03:44;;;;;;;12.32;9.02;;;;;;;4.50;100.00;94499.94;5110796;28;20073;-76
2022/11/17 05:06:14;;;;;;;12.55;8.80;;;;;;;4.58;100.00;94501.78;5110345;28;20047;-77
2022/11/17 05:08:41;;;;;;;12.68;8.70;;;;;;;4.61;100.00;94506.53;5110674;28;20040;-76
2022/11/17 05:13:53;;;;;;;13.55;8.85;;;;;;;4.66;100.00;94503.66;5110682;28;20134;-76
2022/11/17 05:19:05;;;;;;;14.55;9.32;;;;;;;4.67;100.00;94492.53;5089683;28;20047;-77
2022/11/17 05:21:33;;;;;;;13.70;8.82;;;;;;;4.71;100.00;94485.38;5090433;28;20044;-76
2022/11/17 05:23:59;;;;;;;12.73;8.55;;;;;;;4.74;100.00;94483.16;5090077;28;20388;-76
2022/11/17 05:26:28;;;;;;;13.27;8.95;;;;;;;4.72;100.00;94475.38;5089680;28;20032;-76
2022/11/17 05:28:57;;;;;;;14.55;9.73;;;;;;;4.72;100.00;94483.47;5089980;28;20036;-76
2022/11/17 05:31:24;;;;;;;13.95;8.85;;;;;;;4.76;100.00;94489.81;5089631;28;20040;-76
2022/11/17 05:33:51;;;;;;;13.68;9.57;;;;;;;4.78;100.00;94501.03;5090259;28;20066;-76
2022/11/17 05:36:19;;;;;;;11.27;8.52;;;;;;;4.79;100.00;94497.22;5089496;28;20044;-76
2022/11/17 05:38:48;;;;;;;14.15;8.18;;;;;;;4.83;100.00;94500.06;5090118;28;20411;-76
2022/11/17 05:41:16;;;;;;;12.55;8.82;;;;;;;4.82;100.00;94499.28;5089405;28;20066;-76
2022/11/17 05:43:42;;;;;;;12.85;8.45;;;;;;;4.86;100.00;94513.69;5090376;28;20058;-77
2022/11/17 05:46:09;;;;;;;11.98;8.20;;;;;;;4.86;100.00;94519.09;5088877;28;20048;-76
2022/11/17 05:48:36;;;;;;;14.65;9.50;;;;;;;4.91;100.00;94516.22;5091086;28;20058;-76
2022/11/17 05:51:03;;;;;;;14.95;8.73;;;;;;;4.87;100.00;94531.47;5093683;28;20066;-77
2022/11/17 05:53:30;;;;;;;11.38;8.45;;;;;;;4.92;100.00;94543.97;5093897;28;20445;-76
2022/11/17 05:56:13;;;;;;;14.20;9.43;;;;;;;4.74;100.00;94554.03;5093903;28;20043;-75
2022/11/17 05:58:42;;;;;;;13.05;9.10;;;;;;;4.81;100.00;94548.16;5093700;28;20127;-76
2022/11/17 06:01:10;;;;;;;12.73;9.15;;;;;;;4.84;100.00;94542.88;5093342;28;20047;-76
2022/11/17 06:03:42;;;;;;;15.02;8.73;;;;;;;4.92;100.00;94555.53;5093709;28;20052;-76
2022/11/17 06:06:09;;;;;;;12.10;8.55;;;;;;;4.83;100.00;94568.28;5093062;28;20047;-77
2022/11/17 06:08:36;;;;;;;11.82;7.88;;;;;;;4.89;100.00;94561.56;5093486;28;20067;-77
2022/11/17 06:11:02;;;;;;;12.07;8.98;;;;;;;4.83;100.00;94568.28;5093241;28;20109;-78
2022/11/17 06:13:30;;;;;;;14.30;9.45;;;;;;;4.60;100.00;94564.28;5093536;28;20494;-77
2022/11/17 06:16:00;;;;;;;13.23;9.10;;;;;;;4.69;100.00;94578.47;5108249;28;20039;-77
2022/11/17 06:18:30;;;;;;;14.77;9.60;;;;;;;4.52;100.00;94589.34;5113726;28;20044;-78
2022/11/17 06:20:57;;;;;;;20.52;12.18;;;;;;;4.46;100.00;94580.63;5103981;28;20130;-79
2022/11/17 06:23:28;;;;;;;18.65;11.82;;;;;;;4.53;100.00;94580.13;5090031;28;20047;-78
2022/11/17 06:25:55;;;;;;;16.48;11.02;;;;;;;4.36;100.00;94597.16;5090823;28;20048;-78
2022/11/17 06:28:23;;;;;;;15.02;10.07;;;;;;;4.50;100.00;94602.34;5089800;28;20073;-79
2022/11/17 06:30:51;;;;;;;15.27;10.63;;;;;;;4.51;100.00;94593.94;5090370;28;20052;-78
2022/11/17 06:33:19;;;;;;;14.50;10.38;;;;;;;4.59;100.00;94605.78;5089541;28;20048;-79
2022/11/17 06:35:47;;;;;;;16.65;11.07;;;;;;;4.50;100.00;94605.06;5090427;28;20047;-78
2022/11/17 06:38:14;;;;;;;18.63;10.70;;;;;;;4.55;100.00;94604.88;5090278;28;20436;-77
2022/11/17 06:40:40;;;;;;;14.95;9.75;;;;;;;4.62;100.00;94591.69;5090452;28;20052;-78
2022/11/17 06:43:08;;;;;;;18.13;10.60;;;;;;;4.71;100.00;94587.06;5088975;28;20069;-78
2022/11/17 06:45:35;;;;;;;17.15;10.90;;;;;;;4.71;100.00;94581.66;5089651;28;20075;-78
2022/11/17 06:48:04;;;;;;;19.58;11.23;;;;;;;4.72;100.00;94572.47;5089704;28;20052;-79
2022/11/17 06:50:30;;;;;;;16.20;10.65;;;;;;;4.76;100.00;94568.00;5089878;28;20054;-78
2022/11/17 06:52:58;;;;;;;14.52;10.57;;;;;;;4.79;100.00;94555.75;5090122;28;20040;-78
2022/11/17 06:55:24;;;;;;;17.83;11.77;;;;;;;4.83;100.00;94567.50;5089799;28;20689;-79
2022/11/17 06:57:51;;;;;;;18.85;11.85;;;;;;;4.85;100.00;94557.94;5090125;28;20052;-78
2022/11/17 07:00:18;;;;;;;18.08;11.77;;;;;;;4.88;100.00;94565.41;5088791;28;20052;-77
2022/11/17 07:02:45;;;;;;;22.50;13.10;;;;;;;4.85;100.00;94560.63;5089241;28;20043;-77
2022/11/17 07:05:13;;;;;;;19.20;11.50;;;;;;;4.89;100.00;94556.19;5089125;28;20072;-78
2022/11/17 07:07:39;;;;;;;17.25;10.32;;;;;;;4.92;100.00;94560.94;5089629;28;20542;-79
2022/11/17 07:10:07;;;;;;;15.95;9.60;;;;;;;4.95;100.00;94565.66;5087625;28;20048;-77
2022/11/17 07:12:33;;;;;;;15.63;9.23;;;;;;;4.97;100.00;94568.06;5089846;28;20064;-77
2022/11/17 07:15:00;;;;;;;15.43;9.80;;;;;;;4.98;100.00;94575.03;5089107;28;20047;-78
2022/11/17 07:17:27;;;;;;;15.63;10.20;;;;;;;4.98;100.00;94575.81;5089730;28;20056;-78
2022/11/17 07:19:54;;;;;;;16.25;10.40;;;;;;;5.01;100.00;94577.06;5089213;28;20521;-78
2022/11/17 07:22:22;;;;;;;17.33;10.45;;;;;;;5.04;100.00;94575.63;5088145;28;20056;-78
2022/11/17 07:24:48;;;;;;;19.77;10.73;;;;;;;5.07;100.00;94567.69;5089781;28;20047;-77
2022/11/17 07:27:15;;;;;;;16.23;10.57;;;;;;;5.06;100.00;94570.69;5089026;28;20048;-75
2022/11/17 07:29:41;;;;;;;13.85;9.40;;;;;;;5.04;100.00;94579.13;5091734;28;20048;-75
2022/11/17 07:32:12;;;;;;;16.27;10.30;;;;;;;5.02;100.00;94580.56;5091231;28;20036;-75
2022/11/17 07:34:39;;;;;;;16.80;10.55;;;;;;;5.02;100.00;94581.34;5091864;28;20516;-75
2022/11/17 07:37:06;;;;;;;15.73;9.82;;;;;;;5.02;100.00;94580.56;5091439;28;20040;-75
2022/11/17 07:39:34;;;;;;;15.57;10.82;;;;;;;5.01;100.00;94573.56;5091333;28;20064;-75
2022/11/17 07:42:00;;;;;;;16.20;10.55;;;;;;;5.01;100.00;94568.97;5091584;28;20039;-76
2022/11/17 07:44:27;;;;;;;15.65;10.52;;;;;;;5.03;100.00;94552.47;5090527;28;20048;-75
2022/11/17 07:46:54;;;;;;;13.95;9.70;;;;;;;5.03;100.00;94568.66;5091600;28;20518;-75
2022/11/17 07:49:21;;;;;;;17.63;11.48;;;;;;;4.98;100.00;94586.59;5100476;28;20152;-75
2022/11/17 07:51:47;;;;;;;15.80;10.05;;;;;;;4.94;100.00;94601.84;5112028;28;20410;-76
2022/11/17 07:54:14;;;;;;;17.42;11.65;;;;;;;4.87;100.00;94584.59;5111405;28;20732;-76
2022/11/17 07:56:42;;;;;;;17.17;10.57;;;;;;;5.00;100.00;94588.19;5111800;28;20512;-75
2022/11/17 07:59:08;;;;;;;17.27;10.68;;;;;;;5.05;100.00;94588.00;5111228;28;20403;-75
2022/11/17 08:01:35;;;;;;;15.75;10.20;;;;;;;5.13;100.00;94579.06;5111699;28;20548;-76
2022/11/17 08:04:01;;;;;;;16.20;11.15;;;;;;;5.17;100.00;94593.50;5111709;28;20498;-76
2022/11/17 08:06:28;;;;;;;17.30;11.00;;;;;;;5.21;100.00;94597.09;5111549;28;20451;-76
2022/11/17 08:08:54;;;;;;;15.20;10.13;;;;;;;5.14;100.00;94602.25;5112022;28;20043;-78
2022/11/17 08:11:21;;;;;;;16.58;10.82;;;;;;;5.22;100.00;94598.72;5110521;28;20510;-77
2022/11/17 08:13:49;;;;;;;15.25;10.98;;;;;;;5.28;100.00;94600.09;5112054;28;20409;-79
2022/11/17 08:16:16;;;;;;;16.15;10.73;;;;;;;5.34;100.00;94614.97;5111279;28;20070;-78
2022/11/17 08:18:43;;;;;;;14.57;10.05;;;;;;;5.39;100.00;94603.22;5111957;28;20497;-78
2022/11/17 08:21:12;;;;;;;14.23;9.85;;;;;;;5.44;100.00;94609.22;5111262;28;20062;-78
2022/11/17 08:23:39;;;;;;;15.52;9.60;;;;;;;5.53;100.00;94616.44;5111768;28;20060;-77
2022/11/17 08:26:09;;;;;;;16.00;10.93;;;;;;;5.60;100.00;94622.91;5110951;28;20047;-77
2022/11/17 08:28:35;;;;;;;15.40;10.13;;;;;;;5.68;100.00;94630.16;5111793;28;20039;-79
2022/11/17 08:31:05;;;;;;;17.70;10.52;;;;;;;5.67;100.00;94622.38;5110026;28;20516;-77
2022/11/17 08:33:33;;;;;;;15.13;9.80;;;;;;;5.70;100.00;94616.34;5111809;28;20043;-78
2022/11/17 08:36:01;;;;;;;15.63;10.00;;;;;;;5.72;100.00;94609.47;5111811;28;20031;-76
2022/11/17 08:38:28;;;;;;;15.25;10.30;;;;;;;5.74;100.00;94628.84;5110853;28;20051;-77
2022/11/17 08:40:55;;;;;;;13.82;9.77;;;;;;;5.74;100.00;94625.34;5111319;28;20043;-78
2022/11/17 08:43:24;;;;;;;15.52;10.05;;;;;;;5.83;100.00;94626.06;5110549;28;20047;-79
2022/11/17 08:45:50;;;;;;;16.27;9.00;;;;;;;5.79;100.00;94635.94;5110577;28;20044;-78
2022/11/17 08:48:18;;;;;;;16.15;9.57;;;;;;;5.83;100.00;94652.28;5110592;28;20051;-76
2022/11/17 08:50:45;;;;;;;13.20;9.57;;;;;;;5.88;100.00;94663.69;5111319;28;20054;-76
2022/11/17 08:53:14;;;;;;;12.98;9.10;;;;;;;5.85;100.00;94658.19;5110715;28;20095;-76
2022/11/17 08:55:40;;;;;;;13.75;9.32;;;;;;;5.92;100.00;94648.44;5110898;28;20456;-75
2022/11/17 08:58:07;;;;;;;15.43;9.88;;;;;;;6.02;100.00;94631.06;5110486;28;20039;-77
2022/11/17 09:00:34;;;;;;;16.15;10.68;;;;;;;6.16;100.00;94628.06;5111154;28;20487;-77
2022/11/17 09:03:00;;;;;;;15.32;10.80;;;;;;;6.28;100.00;94609.19;5111002;28;20062;-77
2022/11/17 09:05:28;;;;;;;14.43;10.00;;;;;;;6.37;100.00;94601.81;5110491;28;20047;-75
2022/11/17 09:07:55;;;;;;;14.40;8.85;;;;;;;6.41;100.00;94591.88;5110835;28;20048;-75
2022/11/17 09:10:21;;;;;;;20.77;10.57;;;;;;;6.41;100.00;94599.19;5111031;28;20052;-77
2022/11/17 09:12:48;;;;;;;19.67;10.27;;;;;;;6.47;100.00;94592.44;5111446;28;20449;-78
2022/11/17 09:15:15;;;;;;;16.40;9.85;;;;;;;6.47;100.00;94590.56;5109771;28;20047;-78
2022/11/17 09:17:46;;;;;;;13.73;9.35;;;;;;;6.51;100.00;94587.97;5110509;28;20070;-79
2022/11/17 09:20:13;;;;;;;12.57;7.38;;;;;;;6.53;100.00;94594.63;5110360;28;20047;-75
2022/11/17 09:22:40;;;;;;;10.43;7.10;;;;;;;6.45;100.00;94598.19;5112481;28;20044;-80
2022/11/17 09:25:08;;;;;;;10.75;6.38;;;;;;;6.40;100.00;94595.72;5114797;28;20130;-78
2022/11/17 09:27:35;;;;;;;9.52;6.03;;;;;;;6.49;100.00;94582.91;5114768;28;20050;-76
2022/11/17 09:30:02;;;;;;;8.20;5.28;;;;;;;6.62;100.00;94591.03;5114121;28;20044;-75
2022/11/17 09:32:28;;;;;;;8.82;5.57;;;;;;;6.71;100.00;94580.91;5114453;28;20050;-77
2022/11/17 09:34:55;;;;;;;9.10;5.28;;;;;;;6.84;100.00;94570.88;5115228;28;20040;-78
2022/11/17 09:37:22;;;;;;;9.45;5.40;;;;;;;7.03;100.00;94580.00;5115005;28;20071;-78
2022/11/17 09:39:50;;;;;;;7.38;4.85;;;;;;;7.07;100.00;94582.84;5115306;28;20046;-78
2022/11/17 09:42:19;;;;;;;8.88;5.78;;;;;;;7.31;100.00;94573.94;5114408;28;20050;-77
2022/11/17 09:44:51;;;;;;;7.32;5.10;;;;;;;7.48;100.00;94564.75;5114256;28;20062;-77
2022/11/17 09:47:25;;;;;;;7.68;3.90;;;;;;;7.70;100.00;94571.59;5114758;28;20044;-77
2022/11/17 09:49:56;;;;;;;8.68;4.88;;;;;;;8.07;100.00;94566.81;5115095;28;20044;-78
2022/11/17 09:52:28;;;;;;;7.43;3.85;;;;;;;8.32;100.00;94562.88;5114891;28;20051;-77
2022/11/17 09:54:58;;;;;;;6.35;3.67;;;;;;;8.68;100.00;94569.25;5115154;28;20746;-79
2022/11/17 09:57:30;;;;;;;5.88;3.53;;;;;;;8.98;100.00;94556.06;5114775;28;20044;-79
2022/11/17 10:00:12;;;;;;;5.38;3.25;;;;;;;9.28;100.00;94575.34;5115355;28;20047;-79
2022/11/17 10:02:38;;;;;;;5.28;3.00;;;;;;;9.63;100.00;94572.66;5114670;28;20494;-81
2022/11/17 10:05:05;;;;;;;5.38;2.72;;;;;;;9.93;98.37;94583.00;5115259;28;20203;-79
2022/11/17 10:07:34;;;;;;;6.30;3.67;;;;;;;10.18;95.63;94578.88;5115135;28;20096;-76
2022/11/17 10:10:03;;;;;;;3.42;2.50;;;;;;;10.10;88.72;94579.06;5114384;27;20479;-79
2022/11/17 10:12:37;;;;;;;4.47;2.80;;;;;;;10.37;90.43;94577.31;5115476;28;20044;-79
2022/11/17 10:15:21;;;;;;;4.03;2.70;;;;;;;10.68;91.81;94579.03;5114928;28;20043;-79
2022/11/17 10:17:47;;;;;;;3.95;2.30;;;;;;;10.70;88.30;94582.19;5117391;28;20066;-82
2022/11/17 10:20:17;;;;;;;3.10;2.40;;;;;;;10.52;88.73;94587.31;5115656;28;20059;-80
2022/11/17 10:22:45;;;;;;;5.30;2.92;;;;;;;10.48;90.71;94580.22;5115401;28;20047;-80
2022/11/17 10:25:24;;;;;;;5.00;2.97;;;;;;;10.51;91.60;94580.31;5098682;28;20055;-80
2022/11/17 10:27:53;;;;;;;4.28;2.45;;;;;;;10.66;90.99;94582.13;5095783;28;20108;-78
2022/11/17 10:30:22;;;;;;;3.15;2.22;;;;;;;10.65;86.96;94580.56;5092553;28;20066;-78
2022/11/17 10:32:51;;;;;;;6.50;2.40;;;;;;;10.58;87.61;94574.97;5091829;28;20117;-79
2022/11/17 10:35:19;;;;;;;2.72;1.88;;;;;;;10.73;89.14;94581.47;5098719;28;20070;-78
2022/11/17 10:37:54;;;;;;;2.47;2.10;;;;;;;10.75;87.04;94572.94;5113412;28;20044;-78
2022/11/17 10:40:24;;;;;;;3.33;2.45;;;;;;;10.85;88.40;94575.06;5112658;28;20047;-78
2022/11/17 10:43:04;;;;;;;3.53;2.40;;;;;;;10.81;89.48;94582.41;5112977;28;20209;-78
2022/11/17 10:45:32;;;;;;;3.50;2.35;;;;;;;10.81;89.92;94572.28;5111028;28;20036;-78
2022/11/17 10:48:10;;;;;;;5.00;2.53;;;;;;;10.88;90.42;94560.72;5112502;28;20051;-78
2022/11/17 10:50:36;;;;;;;4.85;2.08;;;;;;;10.97;90.77;94569.44;5111638;28;20040;-78
2022/11/17 10:53:22;;;;;;;3.03;2.00;;;;;;;11.02;90.68;94566.44;5111398;28;20153;-79
2022/11/17 10:55:56;;;;;;;3.67;2.13;;;;;;;11.03;89.89;94557.09;5114563;28;20047;-78
2022/11/17 10:58:26;;;;;;;6.95;3.90;;;;;;;11.04;90.01;94547.78;5113709;28;20058;-77
2022/11/17 11:00:54;;;;;;;5.30;3.25;;;;;;;11.11;90.12;94556.03;5114129;28;20051;-77
2022/11/17 11:03:22;;;;;;;4.57;2.85;;;;;;;11.13;90.83;94556.47;5113269;28;20122;-77
2022/11/17 11:05:58;;;;;;;2.42;1.92;;;;;;;11.23;90.57;94555.88;5113918;28;20048;-78
2022/11/17 11:08:28;;;;;;;2.97;1.85;;;;;;;11.40;89.98;94554.56;5113866;28;20147;-78
2022/11/17 11:10:58;;;;;;;6.05;1.98;;;;;;;11.56;89.96;94572.69;5113225;28;20506;-77
2022/11/17 11:13:32;;;;;;;2.83;1.88;;;;;;;11.54;86.59;94564.09;5113386;28;20050;-79
2022/11/17 11:15:58;;;;;;;4.63;2.13;;;;;;;11.42;86.35;94567.81;5113966;28;20043;-79
2022/11/17 11:18:29;;;;;;;4.30;2.00;;;;;;;11.41;86.99;94569.75;5117471;28;20044;-82
2022/11/17 11:21:06;;;;;;;2.40;1.83;;;;;;;11.32;85.67;94571.16;5117827;28;20042;-79
2022/11/17 11:23:43;;;;;;;4.32;1.85;;;;;;;11.43;85.22;94569.38;5116792;28;20044;-79
2022/11/17 11:26:29;;;;;;;3.60;2.10;;;;;;;11.29;84.81;94566.47;5118077;28;20047;-79
2022/11/17 11:29:11;;;;;;;3.00;2.05;;;;;;;11.57;85.42;94558.69;5115139;28;20054;-80
2022/11/17 11:31:52;;;;;;;3.60;2.03;;;;;;;11.69;84.53;94561.22;5114970;28;20036;-80
2022/11/17 11:34:44;;;;;;;4.45;2.28;;;;;;;11.49;82.82;94560.53;5096057;28;20296;-81
2022/11/17 11:37:15;;;;;;;8.07;2.60;;;;;;;11.81;83.58;94568.38;5095166;28;20088;-80
2022/11/17 11:39:52;;;;;;;3.85;2.10;;;;;;;11.95;81.48;94578.72;5096488;28;20046;-80
2022/11/17 11:42:50;;;;;;;2.70;1.50;;;;;;;11.95;82.59;94573.25;5105005;28;20047;-77
2022/11/17 11:45:23;;;;;;;2.65;1.60;;;;;;;11.78;83.40;94574.56;5105890;28;20043;-78
2022/11/17 11:48:10;;;;;;;2.20;1.65;;;;;;;11.69;84.44;94572.13;5115810;28;20036;-79
2022/11/17 11:50:43;;;;;;;4.53;1.50;;;;;;;11.56;84.92;94584.38;5081542;28;20050;-79
2022/11/17 11:53:16;;;;;;;3.83;1.90;;;;;;;11.43;85.17;94585.72;5093948;28;20036;-78
2022/11/17 11:55:48;;;;;;;2.45;1.50;;;;;;;11.31;84.79;94577.75;5095168;28;20044;-80
2022/11/17 11:58:20;;;;;;;1.92;1.45;;;;;;;11.30;85.47;94587.88;5093882;28;20051;-79
2022/11/17 12:00:50;;;;;;;5.40;1.70;;;;;;;11.13;87.12;94602.78;5094275;28;20052;-79